Nearby METAR Reports

 

KSJC - San Jose, California, USA
Distance from station: NE 14km
Updated: 29/03/2020 07:53
Overcast
Overcast
 Wind from ESE
Wind: ESE 6 km/h
Temperature: 11°C
Dew Point: 9°C
Humidity: 88%
Barometer: 1021 hPa
Clouds: Overcast
Visibility: 14 km
Cloud details: Few Clouds 30 m
Mostly cloudy 1524 m
Overcast 6096 m
2020/03/29 05:53 KSJC 290553Z 12003KT 9SM FEW001 BKN050 OVC200 11/09 A3015 RMK AO2 SLP208 60003 T01110089 10133 20111 50000
KNUQ - Moffett Nas/Mtn, California, USA
Distance from station: N 14km
Updated: 21/11/2019 17:56
NOT Current

 
Barometer: 1011.2 hPa
2019/11/21 16:56 KNUQ 211656Z AUTO A2986 RMK AO2 SLP116 PWINO $
 
KPAO - Palo Alto, California, USA
Distance from station: NNW 23km
Updated: 29/03/2020 05:47
NOT Current
Overcast
Overcast
 Wind from SSW
Wind: SSW 9 km/h
Temperature: 11°C
Dew Point: 8°C
Humidity: 82%
Barometer: 1021 hPa
Clouds: Overcast
Visibility: 16 km
Cloud details: Overcast 1219 m
2020/03/29 03:47 KPAO 290347Z 21005KT 10SM OVC040 11/08 A3015 RMK LAST
KRHV - San Jose/Reid, California, USA
Distance from station: ENE 19km
Updated: 29/03/2020 06:55
NOT Current
Light rain, Overcast
Light rain, Overcast
 Wind from calm
Wind: Calm
Temperature: 11°C
Dew Point: 9°C
Humidity: 88%
Barometer: 1021.3 hPa
Summary: Light rain
Clouds: Overcast
Visibility: 13 km
Cloud details: Partly cloudy 366 m
Mostly cloudy 610 m
Overcast 2743 m
2020/03/29 04:55 KRHV 290455Z 00000KT 8SM -RA SCT012 BKN020 OVC090 11/09 A3016
 
KOAK - Oakland, California, USA
Distance from station: NNW 50km
Updated: 29/03/2020 07:53
Overcast
Overcast
 Wind from S
Wind: S 11 km/h
Temperature: 12°C
Dew Point: 8°C
Humidity: 77%
Barometer: 1021 hPa
Clouds: Overcast
Visibility: 16 km
Cloud details: Few Clouds 427 m
Partly cloudy 1006 m
Mostly cloudy 1676 m
Overcast 4877 m
2020/03/29 05:53 KOAK 290553Z 18006KT 10SM FEW014 SCT033 BKN055 OVC160 12/08 A3015 RMK AO2 RAE13 SLP209 P0000 60001 T01220083 10150 20122 50001 $
KSQL - San Carlos Airpo, California, USA
Distance from station: NW 34km
Updated: 29/03/2020 08:35
Overcast
Overcast
 Wind from SSW
Wind: SSW 6 km/h
Temperature: 10°C
Dew Point: 9°C
Humidity: 94%
Barometer: 1021 hPa
Clouds: Overcast
Visibility: 16 km
Cloud details: Mostly cloudy 914 m
Overcast 1280 m
2020/03/29 06:35 KSQL 290635Z AUTO 20003KT 10SM BKN030 OVC042 10/09 A3015 RMK AO2
 
KSFO - San Francisco, California, USA
Distance from station: NW 49km
Updated: 29/03/2020 07:56
Overcast
Overcast
 Wind from SSE
Wind: SSE 9 km/h
Temperature: 11°C
Dew Point: 8°C
Humidity: 82%
Barometer: 1020.7 hPa
Clouds: Overcast
Visibility: 16 km
Cloud details: Few Clouds 914 m
Mostly cloudy 1006 m
Overcast 1524 m
2020/03/29 05:56 KSFO 290556Z 16005KT 10SM FEW030 BKN033 OVC050 11/08 A3014 RMK AO2 SLP206 60000 T01110083 10133 20111 50001
KE16 - San Martin, California, USA
Distance from station: ESE 43km
Updated: 14/11/2019 10:35
NOT Current
Overcast
Overcast
 Wind from SE
Wind: SE 11 km/h
Temperature: 12°C
Dew Point: 10°C
Humidity: 88%
Barometer: 1017.6 hPa
Clouds: Overcast
Visibility: 16 km
Cloud details: Overcast 427 m
2019/11/14 09:35 KE16 140935Z AUTO 13006KT 10SM OVC014 12/10 A3005 RMK AO2
 
KWVI - Watsonville, California, USA
Distance from station: SSE 44km
Updated: 29/03/2020 07:53
Overcast
Overcast
 Wind from calm
Wind: Calm
Temperature: 11°C
Dew Point: 8°C
Humidity: 82%
Barometer: 1021.3 hPa
Clouds: Overcast
Visibility: 16 km
Cloud details: Few Clouds 1829 m
Partly cloudy 2286 m
Overcast 2743 m
2020/03/29 05:53 KWVI 290553Z AUTO 00000KT 10SM FEW060 SCT075 OVC090 11/08 A3016 RMK AO2 RAB20E45 SLP214 P0000 60000 T01110083 10144 20106 50004
KHAF - Half Moon Bay, California, USA
Distance from station: WNW 50km
Updated: 29/03/2020 08:40
Light rain, Overcast
Light rain, Overcast
 Wind from SE
Wind: SE 9 km/h
Temperature: 10°C
Wind Chill: 9°C
Dew Point: 9°C
Humidity: 94%
Barometer: 1021 hPa
Summary: Light rain
Clouds: Overcast
Visibility: 4 km
Cloud details: Overcast 335 m
2020/03/29 06:40 KHAF 290640Z AUTO 13005KT 2 1/2SM -RA OVC011 10/09 A3015 RMK AO2
 
KHWD - Hayward, California, USA
Distance from station: N 44km
Updated: 29/03/2020 08:28
Overcast
Overcast
 Wind from SE
Wind: SE 7 km/h
Temperature: 11°C
Dew Point: 8°C
Humidity: 82%
Barometer: 1020.7 hPa
Clouds: Overcast
Visibility: 16 km
Cloud details: Few Clouds 792 m
Mostly cloudy 1128 m
Overcast 1463 m
2020/03/29 06:28 KHWD 290628Z 14004KT 10SM FEW026 BKN037 OVC048 11/08 A3014 RMK AO2 T01110078
KLVK - Livermore, California, USA
Distance from station: NNE 51km
Updated: 29/03/2020 07:53
Mostly cloudy
Mostly cloudy
 Wind from calm
Wind: Calm
Temperature: 10°C
Dew Point: 8°C
Humidity: 88%
Barometer: 1020.7 hPa
Clouds: Mostly cloudy
Visibility: 14 km
Cloud details: Few Clouds 274 m
Mostly cloudy 1829 m
2020/03/29 05:53 KLVK 290553Z AUTO 00000KT 9SM FEW009 BKN060 10/08 A3014 RMK AO2 SLP205 60004 T01000083 10133 20100 50002